createdAt,value
2023-01-11T00:02:00.134Z,2.30
2023-01-11T00:04:30.216Z,2.60
2023-01-11T00:06:58.177Z,2.30
2023-01-11T00:09:25.231Z,2.30
2023-01-11T00:11:52.180Z,3.60
2023-01-11T00:14:20.857Z,3.13
2023-01-11T00:16:47.702Z,2.47
2023-01-11T00:19:14.623Z,2.97
2023-01-11T00:21:41.541Z,3.30
2023-01-11T00:24:08.540Z,4.40
2023-01-11T00:26:35.419Z,4.43
2023-01-11T00:29:02.277Z,3.97
2023-01-11T00:31:30.544Z,2.57
2023-01-11T00:33:57.605Z,2.87
2023-01-11T00:36:24.443Z,3.10
2023-01-11T00:38:53.535Z,2.97
2023-01-11T00:41:40.723Z,2.83
2023-01-11T00:44:28.749Z,2.43
2023-01-11T00:47:15.548Z,2.07
2023-01-11T00:49:43.012Z,2.87
2023-01-11T00:52:10.366Z,2.13
2023-01-11T00:54:37.842Z,2.43
2023-01-11T00:57:07.209Z,2.37
2023-01-11T00:59:34.313Z,1.80
2023-01-11T01:02:02.706Z,1.93
2023-01-11T01:04:29.592Z,2.67
2023-01-11T01:06:56.642Z,3.17
2023-01-11T01:09:23.660Z,3.50
2023-01-11T01:11:50.650Z,4.70
2023-01-11T01:14:28.300Z,2.67
2023-01-11T01:16:57.618Z,2.33
2023-01-11T01:19:27.721Z,3.43
2023-01-11T01:21:56.588Z,3.23
2023-01-11T01:24:24.096Z,1.93
2023-01-11T01:26:51.626Z,2.37
2023-01-11T01:29:18.718Z,4.37
2023-01-11T01:31:45.712Z,2.30
2023-01-11T01:34:13.602Z,2.00
2023-01-11T01:36:41.819Z,2.30
2023-01-11T01:39:11.168Z,1.93
2023-01-11T01:41:38.982Z,3.40
2023-01-11T01:44:53.842Z,2.10
2023-01-11T01:47:26.428Z,2.40
2023-01-11T01:49:54.218Z,2.03
2023-01-11T01:52:28.876Z,2.87
2023-01-11T01:55:01.939Z,2.63
2023-01-11T01:57:35.746Z,3.50
2023-01-11T02:00:08.156Z,2.50
2023-01-11T02:02:37.520Z,2.50
2023-01-11T02:05:07.369Z,2.67
2023-01-11T02:07:40.534Z,2.37
2023-01-11T02:10:12.806Z,2.87
2023-01-11T02:12:46.531Z,4.57
2023-01-11T02:15:14.742Z,2.47
2023-01-11T02:17:42.150Z,3.03
2023-01-11T02:20:26.896Z,2.83
2023-01-11T02:23:41.850Z,2.87
2023-01-11T02:27:03.163Z,3.10
2023-01-11T02:29:44.729Z,2.90
2023-01-11T02:32:27.323Z,2.50
2023-01-11T02:35:13.651Z,1.73
2023-01-11T02:38:00.210Z,2.60
2023-01-11T02:40:52.637Z,3.10
2023-01-11T02:43:49.284Z,3.40
2023-01-11T02:46:30.385Z,2.10
2023-01-11T02:49:09.031Z,2.43
2023-01-11T02:51:42.577Z,3.53
2023-01-11T02:54:12.644Z,2.10
2023-01-11T02:56:45.471Z,2.80
2023-01-11T02:59:18.062Z,2.43
2023-01-11T03:01:49.528Z,2.40
2023-01-11T03:09:24.185Z,2.57
2023-01-11T03:12:29.973Z,1.97
2023-01-11T03:15:16.935Z,2.33
2023-01-11T03:18:06.861Z,2.27
2023-01-11T03:20:40.854Z,2.73
2023-01-11T03:23:18.923Z,2.83
2023-01-11T03:25:59.555Z,2.63
2023-01-11T03:28:36.742Z,2.13
2023-01-11T03:31:15.252Z,1.97
2023-01-11T03:33:55.714Z,2.70
2023-01-11T03:36:30.988Z,3.23
2023-01-11T03:39:09.630Z,2.00
2023-01-11T03:41:41.398Z,2.33
2023-01-11T03:44:12.781Z,1.97
2023-01-11T03:46:48.255Z,2.13
2023-01-11T03:49:24.925Z,2.90
2023-01-11T03:51:54.667Z,2.20
2023-01-11T03:54:26.577Z,2.07
2023-01-11T03:57:03.434Z,2.83
2023-01-11T03:59:30.755Z,2.50
2023-01-11T04:01:59.244Z,2.37
2023-01-11T04:04:28.620Z,2.07
2023-01-11T04:06:56.414Z,2.13
2023-01-11T04:09:23.394Z,2.27
2023-01-11T04:11:50.300Z,1.90
2023-01-11T04:14:17.214Z,2.27
2023-01-11T04:16:44.056Z,1.73
2023-01-11T04:19:10.914Z,2.20
2023-01-11T04:21:39.098Z,2.33
2023-01-11T04:24:06.951Z,1.70
2023-01-11T04:26:33.951Z,1.83
2023-01-11T04:29:00.860Z,1.83
2023-01-11T04:31:27.869Z,2.03
2023-01-11T04:33:54.847Z,1.87
2023-01-11T04:36:21.804Z,1.80
2023-01-11T04:38:50.082Z,2.17
2023-01-11T04:41:35.966Z,1.83
2023-01-11T04:44:02.919Z,2.10
2023-01-11T04:46:29.784Z,2.23
2023-01-11T04:48:56.702Z,1.87
2023-01-11T04:51:23.858Z,1.80
2023-01-11T04:53:52.208Z,1.50
2023-01-11T04:56:19.633Z,1.67
2023-01-11T04:58:46.830Z,1.90
2023-01-11T05:01:17.544Z,1.60
2023-01-11T05:03:45.916Z,1.97
2023-01-11T05:06:14.630Z,2.40
2023-01-11T05:08:45.977Z,1.70
2023-01-11T05:11:15.798Z,1.57
2023-01-11T05:13:42.922Z,2.00
2023-01-11T05:16:12.624Z,1.70
2023-01-11T05:18:40.963Z,1.63
2023-01-11T05:21:08.377Z,1.70
2023-01-11T05:23:36.530Z,1.80
2023-01-11T05:26:05.744Z,1.50
2023-01-11T05:28:34.861Z,1.70
2023-01-11T05:31:01.982Z,2.50
2023-01-11T05:33:29.338Z,1.70
2023-01-11T05:36:01.695Z,2.03
2023-01-11T05:38:29.644Z,1.73
2023-01-11T05:40:58.452Z,1.83
2023-01-11T05:43:27.068Z,1.67
2023-01-11T05:45:56.775Z,1.43
2023-01-11T05:48:24.614Z,2.40
2023-01-11T05:50:53.008Z,1.80
2023-01-11T05:53:23.862Z,1.30
2023-01-11T05:55:55.220Z,2.10
2023-01-11T05:58:24.040Z,2.13
2023-01-11T06:00:53.167Z,2.10
2023-01-11T06:03:23.118Z,2.30
2023-01-11T06:05:51.276Z,2.40
2023-01-11T06:08:19.518Z,2.27
2023-01-11T06:10:52.619Z,2.20
2023-01-11T06:13:28.767Z,2.50
2023-01-11T06:16:02.265Z,2.27
2023-01-11T06:18:34.451Z,3.63
2023-01-11T06:21:01.868Z,2.70
2023-01-11T06:23:31.512Z,4.07
2023-01-11T06:26:02.228Z,3.00
2023-01-11T06:28:29.114Z,2.87
2023-01-11T06:30:58.307Z,2.83
2023-01-11T06:33:27.793Z,3.10
2023-01-11T06:35:58.325Z,2.90
2023-01-11T06:38:26.478Z,2.93
2023-01-11T06:40:56.077Z,2.97
2023-01-11T06:43:24.252Z,3.17
2023-01-11T06:45:51.559Z,2.60
2023-01-11T06:48:20.291Z,5.30
2023-01-11T06:50:48.997Z,3.20
2023-01-11T06:53:17.704Z,3.30
2023-01-11T06:55:44.862Z,2.80
2023-01-11T06:58:11.860Z,2.90
2023-01-11T07:00:38.940Z,3.20
2023-01-11T07:03:06.881Z,3.00
2023-01-11T07:05:35.652Z,2.97
2023-01-11T07:08:04.048Z,3.60
2023-01-11T07:10:32.285Z,3.23
2023-01-11T07:12:59.197Z,3.20
2023-01-11T07:15:26.158Z,3.57
2023-01-11T07:17:55.564Z,4.33
2023-01-11T07:20:23.311Z,4.10
2023-01-11T07:22:50.304Z,4.07
2023-01-11T07:25:17.634Z,3.90
2023-01-11T07:27:45.860Z,3.37
2023-01-11T07:30:13.774Z,4.10
2023-01-11T07:32:40.749Z,3.93
2023-01-11T07:35:08.983Z,4.73
2023-01-11T07:37:38.012Z,4.80
2023-01-11T07:40:06.443Z,4.40
2023-01-11T07:42:52.000Z,4.70
2023-01-11T07:45:20.314Z,5.30
2023-01-11T07:47:50.506Z,5.10
2023-01-11T07:50:17.783Z,4.17
2023-01-11T07:52:47.821Z,5.67
2023-01-11T07:55:15.012Z,4.97
2023-01-11T07:57:41.889Z,4.67
2023-01-11T08:00:10.946Z,4.83
2023-01-11T08:02:39.364Z,4.10
2023-01-11T08:05:07.568Z,3.63
2023-01-11T08:07:34.449Z,3.03
2023-01-11T08:10:03.087Z,2.50
2023-01-11T08:12:51.362Z,2.57
2023-01-11T08:15:18.414Z,2.83
2023-01-11T08:17:46.611Z,6.23
2023-01-11T08:20:13.533Z,4.37
2023-01-11T08:22:40.545Z,3.37
2023-01-11T08:25:08.461Z,3.23
2023-01-11T08:27:35.469Z,4.30
2023-01-11T08:30:02.484Z,2.27
2023-01-11T08:32:29.742Z,5.47
2023-01-11T08:34:58.025Z,5.33
2023-01-11T08:37:24.939Z,3.73
2023-01-11T08:39:51.841Z,3.87
2023-01-11T08:42:18.802Z,4.83
2023-01-11T08:44:45.730Z,3.77
2023-01-11T08:47:13.793Z,3.00
2023-01-11T08:49:42.877Z,2.43
2023-01-11T08:52:16.259Z,3.63
2023-01-11T08:54:43.223Z,3.37
2023-01-11T08:57:10.710Z,3.67
2023-01-11T08:59:37.663Z,3.30
2023-01-11T09:02:06.279Z,5.43
2023-01-11T09:04:34.071Z,3.00
2023-01-11T09:07:02.270Z,4.93
2023-01-11T09:09:31.429Z,4.07
2023-01-11T09:12:00.690Z,4.33
2023-01-11T09:14:29.106Z,3.30
2023-01-11T09:16:57.077Z,4.27
2023-01-11T09:19:24.529Z,3.33
2023-01-11T09:21:52.189Z,5.43
2023-01-11T09:24:19.486Z,4.33
2023-01-11T09:26:48.293Z,6.83
2023-01-11T09:29:15.438Z,4.40
2023-01-11T09:31:42.552Z,3.23
2023-01-11T09:34:12.629Z,2.93
2023-01-11T09:36:40.651Z,4.50
2023-01-11T09:39:11.651Z,4.00
2023-01-11T09:42:05.296Z,4.73
2023-01-11T09:44:37.520Z,4.97
2023-01-11T09:47:19.476Z,3.47
2023-01-11T09:49:56.088Z,5.40
2023-01-11T09:52:36.084Z,3.23
2023-01-11T09:55:03.870Z,4.50
2023-01-11T09:57:53.598Z,3.53
2023-01-11T10:00:36.272Z,4.27
2023-01-11T10:04:03.947Z,5.10
2023-01-11T10:06:45.041Z,5.47
2023-01-11T10:18:27.732Z,4.77
2023-01-11T10:19:12.302Z,6.57
2023-01-11T10:21:43.957Z,6.10
2023-01-11T10:24:23.507Z,7.03
2023-01-11T10:26:57.510Z,7.43
2023-01-11T10:29:46.044Z,6.33
2023-01-11T10:32:53.130Z,7.00
2023-01-11T10:35:45.553Z,5.73
2023-01-11T10:38:40.834Z,6.50
2023-01-11T10:41:22.063Z,6.87
2023-01-11T10:44:04.898Z,5.57
2023-01-11T10:46:36.267Z,7.13
2023-01-11T10:49:43.908Z,7.27
2023-01-11T10:52:35.830Z,8.60
2023-01-11T10:55:13.202Z,6.77
2023-01-11T10:58:02.857Z,7.47
2023-01-11T11:00:41.848Z,8.50
2023-01-11T11:03:54.684Z,6.90
2023-01-11T11:06:41.520Z,6.20
2023-01-11T11:09:24.434Z,7.40
2023-01-11T11:11:58.795Z,9.47
2023-01-11T11:14:37.734Z,8.93
2023-01-11T11:17:20.658Z,7.37
2023-01-11T11:19:47.980Z,6.10
2023-01-11T11:22:16.576Z,10.03
2023-01-11T11:24:50.531Z,9.60
2023-01-11T11:27:26.866Z,5.87
2023-01-11T11:29:57.248Z,6.87
2023-01-11T11:32:29.789Z,9.57
2023-01-11T11:34:57.370Z,8.13
2023-01-11T11:37:32.867Z,9.70
2023-01-11T11:40:00.534Z,8.60
2023-01-11T11:42:30.250Z,7.77
2023-01-11T11:45:17.490Z,7.53
2023-01-11T11:48:02.650Z,9.40
2023-01-11T11:50:44.200Z,8.57
2023-01-11T11:53:31.207Z,7.57
2023-01-11T11:56:00.318Z,6.30
2023-01-11T11:58:28.013Z,7.43
2023-01-11T12:00:55.868Z,13.80
2023-01-11T12:03:29.328Z,7.47
2023-01-11T12:06:02.907Z,12.53
2023-01-11T12:08:35.925Z,8.00
2023-01-11T12:11:07.831Z,10.50
2023-01-11T12:13:39.002Z,10.87
2023-01-11T12:16:20.592Z,8.70
2023-01-11T12:18:48.437Z,11.73
2023-01-11T12:21:21.337Z,6.30
2023-01-11T12:24:12.980Z,8.23
2023-01-11T12:26:52.987Z,12.07
2023-01-11T12:29:50.706Z,10.13
2023-01-11T12:32:53.653Z,10.47
2023-01-11T12:35:39.250Z,6.67
2023-01-11T12:38:42.449Z,7.30
2023-01-11T12:41:50.041Z,9.60
2023-01-11T12:44:41.548Z,4.13
2023-01-11T12:47:41.160Z,7.30
2023-01-11T12:50:19.612Z,6.20
2023-01-11T12:53:07.177Z,8.83
2023-01-11T12:56:03.132Z,5.73
2023-01-11T12:58:40.162Z,9.47
2023-01-11T13:01:30.413Z,9.07
2023-01-11T13:04:20.446Z,6.97
2023-01-11T13:07:05.044Z,4.90
2023-01-11T13:09:54.039Z,6.33
2023-01-11T13:12:29.592Z,5.20
2023-01-11T13:15:19.673Z,7.03
2023-01-11T13:17:58.957Z,6.20
2023-01-11T13:20:59.542Z,5.97
2023-01-11T13:23:39.416Z,7.97
2023-01-11T13:26:21.377Z,8.70
2023-01-11T13:28:56.586Z,7.60
2023-01-11T13:31:26.238Z,6.23
2023-01-11T13:34:02.133Z,4.00
2023-01-11T13:36:40.103Z,10.50
2023-01-11T13:39:18.245Z,4.67
2023-01-11T13:41:50.827Z,6.47
2023-01-11T13:44:24.080Z,5.67
2023-01-11T13:47:10.853Z,3.97
2023-01-11T13:49:52.165Z,8.03
2023-01-11T13:52:26.826Z,6.43
2023-01-11T13:55:02.037Z,7.90
2023-01-11T13:57:40.812Z,6.70
2023-01-11T14:00:22.089Z,11.13
2023-01-11T14:02:58.777Z,6.20
2023-01-11T14:05:36.721Z,7.20
2023-01-11T14:08:45.912Z,6.47
2023-01-11T14:11:27.317Z,7.97
2023-01-11T14:14:27.067Z,4.23
2023-01-11T14:17:38.454Z,7.60
2023-01-11T14:20:23.003Z,9.13
2023-01-11T14:23:04.028Z,8.17
2023-01-11T14:25:38.149Z,5.57
2023-01-11T14:28:25.577Z,9.87
2023-01-11T14:31:23.507Z,8.57
2023-01-11T14:34:25.443Z,8.43
2023-01-11T14:37:39.981Z,6.27
2023-01-11T14:40:50.354Z,7.13
2023-01-11T14:44:00.806Z,6.10
2023-01-11T14:47:05.533Z,15.00
2023-01-11T14:49:59.360Z,7.97
2023-01-11T14:52:40.105Z,8.37
2023-01-11T14:55:19.023Z,7.37
2023-01-11T14:58:03.785Z,10.47
2023-01-11T15:01:11.279Z,9.33
2023-01-11T15:03:54.541Z,9.43
2023-01-11T15:06:22.715Z,10.47
2023-01-11T15:08:54.837Z,6.33
2023-01-11T15:11:41.861Z,12.63
2023-01-11T15:14:32.696Z,9.20
2023-01-11T15:17:21.298Z,8.97
2023-01-11T15:19:51.511Z,7.03
2023-01-11T15:22:28.767Z,12.27
2023-01-11T15:25:01.320Z,6.83
2023-01-11T15:27:34.716Z,7.13
2023-01-11T15:30:04.117Z,8.17
2023-01-11T15:32:33.728Z,7.80
2023-01-11T15:35:31.483Z,7.80
2023-01-11T15:38:11.271Z,9.77
2023-01-11T15:40:43.067Z,8.03
2023-01-11T15:44:05.331Z,8.50
2023-01-11T15:47:19.872Z,5.50
2023-01-11T15:50:31.535Z,10.23
2023-01-11T15:53:50.543Z,9.20
2023-01-11T15:57:20.217Z,7.90
2023-01-11T16:00:32.830Z,9.70
2023-01-11T16:03:35.579Z,8.43
2023-01-11T16:06:17.631Z,8.97
2023-01-11T16:08:56.867Z,11.27
2023-01-11T16:11:34.746Z,10.10
2023-01-11T16:14:39.797Z,11.57
2023-01-11T16:17:12.839Z,8.40
2023-01-11T16:19:44.752Z,11.00
2023-01-11T16:22:19.557Z,10.77
2023-01-11T16:24:52.439Z,16.87
2023-01-11T16:27:26.799Z,10.27
2023-01-11T16:29:56.026Z,8.83
2023-01-11T16:32:26.987Z,7.63
2023-01-11T16:34:55.584Z,12.17
2023-01-11T16:37:35.024Z,16.13
2023-01-11T16:40:12.588Z,20.33
2023-01-11T16:42:46.393Z,12.30
2023-01-11T16:45:19.643Z,19.20
2023-01-11T16:48:04.470Z,8.90
2023-01-11T16:50:33.246Z,10.43
2023-01-11T16:53:02.232Z,13.63
2023-01-11T16:55:36.457Z,8.93
2023-01-11T16:58:06.933Z,10.47
2023-01-11T17:00:39.495Z,11.13
2023-01-11T17:03:22.481Z,13.43
2023-01-11T17:06:15.718Z,11.50
2023-01-11T17:08:45.220Z,9.23
2023-01-11T17:11:28.078Z,8.40
2023-01-11T17:14:27.782Z,10.30
2023-01-11T17:17:01.185Z,9.40
2023-01-11T17:19:31.971Z,10.13
2023-01-11T17:22:05.381Z,11.17
2023-01-11T17:24:40.311Z,10.67
2023-01-11T17:27:17.752Z,11.83
2023-01-11T17:29:47.338Z,9.37
2023-01-11T17:32:23.162Z,11.73
2023-01-11T17:34:51.790Z,11.33
2023-01-11T17:37:19.983Z,16.60
2023-01-11T17:39:53.336Z,11.43
2023-01-11T17:42:39.590Z,9.77
2023-01-11T17:45:21.101Z,10.23
2023-01-11T17:47:52.807Z,13.20
2023-01-11T17:50:28.993Z,11.67
2023-01-11T17:53:06.136Z,13.97
2023-01-11T17:55:34.420Z,10.23
2023-01-11T17:58:19.211Z,10.37
2023-01-11T18:01:16.123Z,11.50
2023-01-11T18:03:48.055Z,13.93
2023-01-11T18:06:26.041Z,11.67
2023-01-11T18:08:55.794Z,9.63
2023-01-11T18:11:27.058Z,19.20
2023-01-11T18:13:59.892Z,11.70
2023-01-11T18:16:27.271Z,13.83
2023-01-11T18:18:56.712Z,14.27
2023-01-11T18:21:40.163Z,9.97
2023-01-11T18:24:43.375Z,13.37
2023-01-11T18:27:28.267Z,10.80
2023-01-11T18:29:58.552Z,10.33
2023-01-11T18:32:28.440Z,12.13
2023-01-11T18:34:59.007Z,8.30
2023-01-11T18:37:26.089Z,15.50
2023-01-11T18:39:53.442Z,13.33
2023-01-11T18:42:28.574Z,11.63
2023-01-11T18:44:55.903Z,7.47
2023-01-11T18:47:27.040Z,9.83
2023-01-11T18:49:56.499Z,14.43
2023-01-11T18:52:27.428Z,13.47
2023-01-11T18:54:56.238Z,16.83
2023-01-11T18:57:24.155Z,8.93
2023-01-11T18:59:55.433Z,10.97
2023-01-11T19:02:26.734Z,14.27
2023-01-11T19:04:56.918Z,12.63
2023-01-11T19:07:25.390Z,18.70
2023-01-11T19:09:56.680Z,12.90
2023-01-11T19:12:24.147Z,11.13
2023-01-11T19:14:51.504Z,12.60
2023-01-11T19:17:19.130Z,9.80
2023-01-11T19:19:46.704Z,14.57
2023-01-11T19:22:14.957Z,12.70
2023-01-11T19:24:42.222Z,22.53
2023-01-11T19:27:09.373Z,14.60
2023-01-11T19:29:36.290Z,11.87
2023-01-11T19:32:03.315Z,11.90
2023-01-11T19:34:32.313Z,9.73
2023-01-11T19:37:00.207Z,10.40
2023-01-11T19:39:28.735Z,10.90
2023-01-11T19:41:57.867Z,8.83
2023-01-11T19:44:29.233Z,15.90
2023-01-11T19:47:10.446Z,13.83
2023-01-11T19:49:39.725Z,12.03
2023-01-11T19:52:12.968Z,12.50
2023-01-11T19:54:43.017Z,10.43
2023-01-11T19:57:10.776Z,11.30
2023-01-11T19:59:37.680Z,18.47
2023-01-11T20:02:05.366Z,12.10
2023-01-11T20:04:33.088Z,8.87
2023-01-11T20:07:00.508Z,7.10
2023-01-11T20:09:27.398Z,11.33
2023-01-11T20:11:55.741Z,12.90
2023-01-11T20:14:23.027Z,10.43
2023-01-11T20:16:49.867Z,12.93
2023-01-11T20:19:17.290Z,12.77
2023-01-11T20:21:44.250Z,10.87
2023-01-11T20:24:13.653Z,14.50
2023-01-11T20:26:41.174Z,11.40
2023-01-11T20:29:09.512Z,13.80
2023-01-11T20:31:36.644Z,10.47
2023-01-11T20:34:12.032Z,14.83
2023-01-11T20:36:39.690Z,15.27
2023-01-11T20:39:07.163Z,11.27
2023-01-11T20:41:52.300Z,14.53
2023-01-11T20:44:24.354Z,13.87
2023-01-11T20:46:53.418Z,14.77
2023-01-11T20:49:23.904Z,14.37
2023-01-11T20:51:51.695Z,14.13
2023-01-11T20:54:18.932Z,12.37
2023-01-11T20:56:46.828Z,11.13
2023-01-11T20:59:17.576Z,12.97
2023-01-11T21:01:46.097Z,12.83
2023-01-11T21:04:14.436Z,10.03
2023-01-11T21:06:45.444Z,13.57
2023-01-11T21:09:16.519Z,10.43
2023-01-11T21:11:44.106Z,15.33
2023-01-11T21:14:14.078Z,9.27
2023-01-11T21:16:44.097Z,13.90
2023-01-11T21:19:14.765Z,9.90
2023-01-11T21:21:42.255Z,14.23
2023-01-11T21:24:13.255Z,17.33
2023-01-11T21:26:42.224Z,7.77
2023-01-11T21:29:11.698Z,12.57
2023-01-11T21:31:40.165Z,8.80
2023-01-11T21:34:07.711Z,8.53
2023-01-11T21:36:36.092Z,7.93
2023-01-11T21:39:03.874Z,13.67
2023-01-11T21:41:51.633Z,6.50
2023-01-11T21:44:20.206Z,6.80
2023-01-11T21:46:47.833Z,15.30
2023-01-11T21:49:16.077Z,7.47
2023-01-11T21:51:44.471Z,8.10
2023-01-11T21:54:14.072Z,7.20
2023-01-11T21:56:44.218Z,8.53
2023-01-11T21:59:12.438Z,9.37
2023-01-11T22:01:41.879Z,10.10
2023-01-11T22:04:10.982Z,7.90
2023-01-11T22:06:39.928Z,12.03
2023-01-11T22:09:10.432Z,8.73
2023-01-11T22:11:37.617Z,6.17
2023-01-11T22:14:06.514Z,5.40
2023-01-11T22:16:35.058Z,5.73
2023-01-11T22:19:03.138Z,7.90
2023-01-11T22:21:30.020Z,6.90
2023-01-11T22:23:58.834Z,9.20
2023-01-11T22:26:33.194Z,8.23
2023-01-11T22:29:12.737Z,10.47
2023-01-11T22:31:42.352Z,7.30
2023-01-11T22:34:09.924Z,6.83
2023-01-11T22:36:37.019Z,12.40
2023-01-11T22:39:04.539Z,13.93
2023-01-11T22:41:33.140Z,7.63
2023-01-11T22:44:00.097Z,9.50
2023-01-11T22:46:28.629Z,8.30
2023-01-11T22:48:55.515Z,4.53
2023-01-11T22:51:26.575Z,9.03
2023-01-11T22:53:55.610Z,9.47
2023-01-11T22:56:26.080Z,5.50
2023-01-11T22:58:55.541Z,5.80
2023-01-11T23:01:25.673Z,8.93
2023-01-11T23:03:54.580Z,8.33
2023-01-11T23:06:25.369Z,11.00
2023-01-11T23:08:53.377Z,11.00
2023-01-11T23:11:42.440Z,5.70
2023-01-11T23:14:14.321Z,7.27
2023-01-11T23:16:42.757Z,9.87
2023-01-11T23:19:11.984Z,7.40
2023-01-11T23:21:41.620Z,7.90
2023-01-11T23:24:09.681Z,8.87
2023-01-11T23:26:37.461Z,6.13
2023-01-11T23:29:04.926Z,5.57
2023-01-11T23:31:33.364Z,7.03
2023-01-11T23:34:02.353Z,6.60
2023-01-11T23:36:33.413Z,4.43
2023-01-11T23:39:02.512Z,8.53
2023-01-11T23:41:48.177Z,9.97
2023-01-11T23:44:17.209Z,6.03
2023-01-11T23:47:04.929Z,8.37
2023-01-11T23:49:32.762Z,7.47
2023-01-11T23:52:00.786Z,5.37
2023-01-11T23:54:30.423Z,5.70
2023-01-11T23:56:58.805Z,6.87
2023-01-11T23:59:25.876Z,6.80
